createdAt,value
2017-09-07T00:01:06.560Z,72.50
2017-09-07T00:03:35.328Z,72.60
2017-09-07T00:06:03.786Z,72.90
2017-09-07T00:08:32.974Z,72.80
2017-09-07T00:11:01.404Z,72.80
2017-09-07T00:13:29.857Z,73.10
2017-09-07T00:15:58.280Z,72.70
2017-09-07T00:18:26.704Z,72.40
2017-09-07T00:20:55.294Z,72.70
2017-09-07T00:23:23.728Z,72.90
2017-09-07T00:25:52.148Z,72.90
2017-09-07T00:28:21.337Z,72.70
2017-09-07T00:30:49.749Z,72.70
2017-09-07T00:33:17.821Z,73.20
2017-09-07T00:35:46.257Z,73.30
2017-09-07T00:38:14.680Z,73.40
2017-09-07T00:40:43.868Z,73.80
2017-09-07T00:43:12.320Z,73.80
2017-09-07T00:45:40.745Z,73.80
2017-09-07T00:48:09.199Z,73.80
2017-09-07T00:50:36.948Z,74.30
2017-09-07T00:53:05.433Z,74.00
2017-09-07T00:55:33.872Z,74.00
2017-09-07T00:58:02.294Z,74.10
2017-09-07T01:00:30.704Z,74.20
2017-09-07T01:02:59.128Z,74.40
2017-09-07T01:05:27.654Z,74.20
2017-09-07T01:07:56.069Z,74.30
2017-09-07T01:10:24.489Z,74.40
2017-09-07T01:12:52.932Z,74.50
2017-09-07T01:15:20.996Z,74.80
2017-09-07T01:17:49.417Z,75.30
2017-09-07T01:20:17.848Z,75.10
2017-09-07T01:22:45.917Z,75.00
2017-09-07T01:25:13.652Z,75.00
2017-09-07T01:27:42.101Z,75.10
2017-09-07T01:30:09.812Z,75.10
2017-09-07T01:32:38.229Z,75.20
2017-09-07T01:35:06.657Z,75.30
2017-09-07T01:37:35.073Z,75.40
2017-09-07T01:40:03.493Z,75.50
2017-09-07T01:42:31.936Z,75.60
2017-09-07T01:45:00.352Z,75.90
2017-09-07T01:47:28.772Z,75.90
2017-09-07T01:49:57.228Z,75.90
2017-09-07T01:52:25.634Z,75.80
2017-09-07T01:54:54.058Z,75.90
2017-09-07T01:57:22.549Z,75.80
2017-09-07T01:59:50.621Z,75.90
2017-09-07T02:02:18.348Z,75.60
2017-09-07T02:04:46.802Z,75.80
2017-09-07T02:07:14.871Z,76.00
2017-09-07T02:09:42.973Z,76.00
2017-09-07T02:12:11.380Z,76.20
2017-09-07T02:14:39.808Z,76.30
2017-09-07T02:17:08.252Z,76.50
2017-09-07T02:19:36.676Z,76.50
2017-09-07T02:22:05.296Z,77.00
2017-09-07T02:24:33.717Z,76.90
2017-09-07T02:27:01.951Z,77.10
2017-09-07T02:29:30.397Z,77.00
2017-09-07T02:31:58.833Z,77.00
2017-09-07T02:34:27.324Z,77.10
2017-09-07T02:36:55.423Z,76.80
2017-09-07T02:39:23.898Z,76.70
2017-09-07T02:41:52.369Z,77.10
2017-09-07T02:44:20.825Z,78.00
2017-09-07T02:46:49.321Z,77.00
2017-09-07T02:49:17.788Z,76.90
2017-09-07T02:51:46.266Z,77.00
2017-09-07T02:54:14.736Z,77.20
2017-09-07T02:56:43.184Z,77.50
2017-09-07T02:59:11.633Z,77.20
2017-09-07T03:01:40.047Z,77.80
2017-09-07T03:04:08.500Z,77.10
2017-09-07T03:06:36.943Z,77.40
2017-09-07T03:09:05.008Z,77.30
2017-09-07T03:11:33.451Z,77.50
2017-09-07T03:14:01.884Z,77.50
2017-09-07T03:16:30.304Z,77.50
2017-09-07T03:18:58.729Z,77.70
2017-09-07T03:21:27.148Z,77.10
2017-09-07T03:23:55.863Z,77.60
2017-09-07T03:26:24.296Z,77.70
2017-09-07T03:28:52.713Z,77.80
2017-09-07T03:31:21.143Z,77.80
2017-09-07T03:33:49.577Z,78.10
2017-09-07T03:36:18.017Z,77.90
2017-09-07T03:38:46.240Z,77.90
2017-09-07T03:41:14.668Z,78.00
2017-09-07T03:43:43.088Z,78.00
2017-09-07T03:46:11.523Z,78.20
2017-09-07T03:48:39.963Z,78.10
2017-09-07T03:51:08.389Z,78.20
2017-09-07T03:53:36.805Z,78.30
2017-09-07T03:56:05.240Z,78.50
2017-09-07T03:58:33.688Z,78.50
2017-09-07T04:01:02.144Z,78.60
2017-09-07T04:03:30.563Z,78.50
2017-09-07T04:05:59.811Z,78.80
2017-09-07T04:08:28.253Z,79.00
2017-09-07T04:10:56.674Z,78.80
2017-09-07T04:13:25.108Z,78.70
2017-09-07T04:15:53.524Z,78.70
2017-09-07T04:18:22.732Z,78.80
2017-09-07T04:20:51.163Z,78.80
2017-09-07T04:23:19.591Z,78.90
2017-09-07T04:25:48.029Z,79.10
2017-09-07T04:28:16.457Z,78.90
2017-09-07T04:30:44.872Z,79.10
2017-09-07T04:33:13.325Z,79.10
2017-09-07T04:35:41.736Z,79.10
2017-09-07T04:38:10.163Z,79.20
2017-09-07T04:40:38.625Z,79.40
2017-09-07T04:43:07.055Z,79.50
2017-09-07T04:45:35.476Z,79.50
2017-09-07T04:48:03.917Z,79.50
2017-09-07T04:50:32.366Z,79.60
2017-09-07T04:53:00.776Z,79.70
2017-09-07T04:55:29.227Z,79.90
2017-09-07T04:57:57.653Z,79.80
2017-09-07T05:00:26.091Z,80.10
2017-09-07T05:02:54.550Z,79.90
2017-09-07T05:05:22.992Z,79.90
2017-09-07T05:07:51.401Z,80.40
2017-09-07T05:10:19.868Z,80.50
2017-09-07T05:12:48.087Z,80.60
2017-09-07T05:15:16.523Z,80.70
2017-09-07T05:17:44.985Z,80.90
2017-09-07T05:20:13.428Z,80.90
2017-09-07T05:22:41.844Z,80.70
2017-09-07T05:25:10.469Z,80.90
2017-09-07T05:27:38.900Z,81.00
2017-09-07T05:30:07.329Z,81.30
2017-09-07T05:32:35.765Z,81.30
2017-09-07T05:35:04.184Z,81.50
2017-09-07T05:37:32.632Z,81.40
2017-09-07T05:40:01.073Z,81.50
2017-09-07T05:42:29.484Z,81.70
2017-09-07T05:44:57.920Z,81.80
2017-09-07T05:47:26.405Z,81.80
2017-09-07T05:49:54.629Z,81.80
2017-09-07T05:52:23.064Z,81.80
2017-09-07T05:54:52.089Z,81.90
2017-09-07T05:57:20.517Z,81.90
2017-09-07T05:59:48.928Z,81.90
2017-09-07T06:02:17.373Z,81.80
2017-09-07T06:04:46.097Z,81.70
2017-09-07T06:07:14.521Z,82.00
2017-09-07T06:09:43.001Z,81.80
2017-09-07T06:12:11.413Z,81.70
2017-09-07T06:14:39.824Z,82.00
2017-09-07T06:17:08.289Z,82.20
2017-09-07T06:19:36.703Z,81.90
2017-09-07T06:22:05.129Z,82.00
2017-09-07T06:24:33.582Z,82.40
2017-09-07T06:27:02.018Z,82.90
2017-09-07T06:29:30.416Z,83.20
2017-09-07T06:31:58.876Z,83.00
2017-09-07T06:34:27.288Z,83.40
2017-09-07T06:36:55.710Z,83.30
2017-09-07T06:39:24.138Z,82.60
2017-09-07T06:41:52.561Z,83.10
2017-09-07T06:44:20.985Z,83.10
2017-09-07T06:46:49.501Z,83.00
2017-09-07T06:49:18.158Z,83.50
2017-09-07T06:51:47.586Z,83.50
2017-09-07T06:54:16.114Z,82.60
2017-09-07T06:56:44.641Z,82.80
2017-09-07T06:59:13.135Z,82.90
2017-09-07T07:01:41.993Z,82.80
2017-09-07T07:04:10.491Z,83.30
2017-09-07T07:06:39.025Z,82.80
2017-09-07T07:09:07.468Z,83.00
2017-09-07T07:11:35.930Z,83.10
2017-09-07T07:14:04.522Z,83.40
2017-09-07T07:16:33.335Z,83.20
2017-09-07T07:19:01.858Z,83.10
2017-09-07T07:21:30.612Z,82.50
2017-09-07T07:23:59.271Z,82.20
2017-09-07T07:26:28.164Z,82.50
2017-09-07T07:28:56.662Z,82.10
2017-09-07T07:31:25.254Z,81.50
2017-09-07T07:33:53.898Z,81.90
2017-09-07T07:36:22.313Z,82.10
2017-09-07T07:38:51.038Z,82.30
2017-09-07T07:41:19.558Z,82.50
2017-09-07T07:43:48.275Z,81.80
2017-09-07T07:46:16.721Z,81.70
2017-09-07T07:48:45.464Z,81.20
2017-09-07T07:51:14.008Z,82.00
2017-09-07T07:53:42.530Z,81.10
2017-09-07T07:56:11.102Z,80.80
2017-09-07T07:58:39.674Z,80.90
2017-09-07T08:01:08.141Z,81.40
2017-09-07T08:03:36.750Z,81.70
2017-09-07T08:06:05.184Z,82.10
2017-09-07T08:08:33.764Z,81.70
2017-09-07T08:11:02.475Z,81.50
2017-09-07T08:13:30.922Z,81.60
2017-09-07T08:15:59.765Z,81.80
2017-09-07T08:18:28.197Z,81.60
2017-09-07T08:20:56.653Z,81.00
2017-09-07T08:23:25.320Z,80.60
2017-09-07T08:25:53.740Z,80.60
2017-09-07T08:28:22.172Z,80.90
2017-09-07T08:30:50.259Z,79.90
2017-09-07T08:33:18.676Z,79.50
2017-09-07T08:35:46.417Z,79.50
2017-09-07T08:38:14.856Z,78.50
2017-09-07T08:40:44.108Z,78.70
2017-09-07T08:43:12.830Z,78.60
2017-09-07T08:45:42.053Z,78.10
2017-09-07T08:48:10.634Z,78.00
2017-09-07T08:50:39.067Z,78.10
2017-09-07T08:53:07.501Z,78.70
2017-09-07T08:55:35.909Z,78.40
2017-09-07T08:58:04.345Z,78.40
2017-09-07T09:00:32.780Z,77.50
2017-09-07T09:03:01.238Z,77.30
2017-09-07T09:05:30.347Z,77.50
2017-09-07T09:07:58.818Z,77.70
2017-09-07T09:10:27.242Z,76.80
2017-09-07T09:12:55.649Z,76.80
2017-09-07T09:15:24.845Z,77.00
2017-09-07T09:17:53.280Z,77.00
2017-09-07T09:20:21.708Z,78.00
2017-09-07T09:22:50.160Z,76.40
2017-09-07T09:25:18.578Z,76.70
2017-09-07T09:27:47.002Z,75.10
2017-09-07T09:30:15.469Z,76.50
2017-09-07T09:32:43.885Z,75.20
2017-09-07T09:35:13.113Z,75.50
2017-09-07T09:37:41.573Z,75.50
2017-09-07T09:40:10.262Z,75.60
2017-09-07T09:42:38.682Z,74.90
2017-09-07T09:45:07.392Z,74.40
2017-09-07T09:47:35.814Z,74.40
2017-09-07T09:50:04.239Z,74.00
2017-09-07T09:52:32.686Z,74.50
2017-09-07T09:55:01.129Z,74.30
2017-09-07T09:57:30.308Z,74.30
2017-09-07T09:59:58.816Z,73.40
2017-09-07T10:02:27.242Z,73.70
2017-09-07T10:04:55.478Z,73.00
2017-09-07T10:07:23.933Z,72.70
2017-09-07T10:09:53.128Z,71.70
2017-09-07T10:12:21.831Z,71.70
2017-09-07T10:14:50.303Z,69.20
2017-09-07T10:17:19.484Z,68.20
2017-09-07T10:19:48.665Z,68.40
2017-09-07T10:22:17.180Z,68.40
2017-09-07T10:24:45.606Z,66.90
2017-09-07T10:27:14.021Z,66.80
2017-09-07T10:29:42.545Z,66.80
2017-09-07T10:32:11.035Z,67.30
2017-09-07T10:34:39.580Z,66.50
2017-09-07T10:37:08.804Z,65.50
2017-09-07T10:39:37.230Z,65.50
2017-09-07T10:42:05.648Z,65.00
2017-09-07T10:44:34.844Z,65.20
2017-09-07T10:47:03.268Z,65.20
2017-09-07T10:49:31.713Z,63.60
2017-09-07T10:52:00.125Z,63.70
2017-09-07T10:54:28.998Z,64.60
2017-09-07T10:56:57.070Z,64.20
2017-09-07T10:59:26.282Z,62.50
2017-09-07T11:01:54.813Z,62.50
2017-09-07T11:04:23.995Z,60.90
2017-09-07T11:06:52.894Z,60.90
2017-09-07T11:09:21.361Z,58.90
2017-09-07T11:11:49.797Z,59.30
2017-09-07T11:14:18.231Z,59.70
2017-09-07T11:16:46.660Z,58.90
2017-09-07T11:19:15.341Z,58.30
2017-09-07T11:21:43.806Z,58.50
2017-09-07T11:24:12.450Z,58.90
2017-09-07T11:26:41.709Z,58.80
2017-09-07T11:29:10.601Z,58.80
2017-09-07T11:31:39.155Z,58.60
2017-09-07T11:34:07.586Z,57.80
2017-09-07T11:36:36.390Z,57.80
2017-09-07T11:39:03.980Z,57.00
2017-09-07T11:41:32.495Z,57.70
2017-09-07T11:44:01.166Z,57.10
2017-09-07T11:46:29.628Z,57.40
2017-09-07T11:48:58.078Z,56.00
2017-09-07T11:51:26.537Z,55.50
2017-09-07T11:53:54.976Z,56.10
2017-09-07T11:56:23.575Z,57.00
2017-09-07T11:58:52.022Z,57.00
2017-09-07T12:01:20.453Z,57.40
2017-09-07T12:03:49.595Z,54.70
2017-09-07T12:06:18.049Z,54.50
2017-09-07T12:08:46.536Z,52.40
2017-09-07T12:11:15.730Z,53.60
2017-09-07T12:13:44.278Z,53.60
2017-09-07T12:16:12.782Z,54.20
2017-09-07T12:18:41.209Z,54.40
2017-09-07T12:21:09.681Z,53.70
2017-09-07T12:23:38.138Z,54.50
2017-09-07T12:26:06.854Z,54.40
2017-09-07T12:28:35.322Z,56.10
2017-09-07T12:31:03.849Z,55.10
2017-09-07T12:33:32.295Z,54.30
2017-09-07T12:36:00.729Z,54.70
2017-09-07T12:38:30.053Z,56.30
2017-09-07T12:40:58.522Z,56.30
2017-09-07T12:43:26.937Z,56.20
2017-09-07T12:45:58.335Z,55.30
2017-09-07T12:48:26.811Z,55.60
2017-09-07T12:50:56.248Z,55.80
2017-09-07T12:53:24.741Z,55.80
2017-09-07T12:55:53.164Z,56.30
2017-09-07T12:58:21.617Z,55.80
2017-09-07T13:00:50.043Z,56.40
2017-09-07T13:03:18.548Z,57.90
2017-09-07T13:05:46.984Z,57.40
2017-09-07T13:08:15.409Z,57.60
2017-09-07T13:10:43.842Z,56.10
2017-09-07T13:13:12.265Z,56.40
2017-09-07T13:15:40.721Z,57.20
2017-09-07T13:18:09.921Z,57.10
2017-09-07T13:20:38.356Z,57.20
2017-09-07T13:23:06.801Z,57.80
2017-09-07T13:25:35.265Z,57.90
2017-09-07T13:28:03.945Z,57.60
2017-09-07T13:30:32.382Z,57.60
2017-09-07T13:33:00.817Z,57.30
2017-09-07T13:35:29.101Z,57.40
2017-09-07T13:37:57.546Z,57.80
2017-09-07T13:40:26.367Z,57.20
2017-09-07T13:42:55.042Z,57.50
2017-09-07T13:45:23.490Z,58.00
2017-09-07T13:47:52.713Z,57.90
2017-09-07T13:50:21.138Z,57.80
2017-09-07T13:52:49.674Z,59.00
2017-09-07T13:55:18.125Z,58.60
2017-09-07T13:57:46.821Z,58.60
2017-09-07T14:00:16.028Z,59.00
2017-09-07T14:02:44.458Z,59.00
2017-09-07T14:05:12.930Z,58.70
2017-09-07T14:07:41.654Z,59.80
2017-09-07T14:10:10.153Z,59.80
2017-09-07T14:12:38.599Z,60.30
2017-09-07T14:15:07.028Z,60.90
2017-09-07T14:17:35.704Z,60.60
2017-09-07T14:20:04.382Z,60.30
2017-09-07T14:22:32.828Z,60.50
2017-09-07T14:25:01.248Z,60.20
2017-09-07T14:27:29.665Z,60.90
2017-09-07T14:29:58.133Z,61.30
2017-09-07T14:32:26.564Z,61.30
2017-09-07T14:34:55.008Z,62.10
2017-09-07T14:37:23.445Z,61.80
2017-09-07T14:39:51.700Z,62.40
2017-09-07T14:42:20.291Z,62.50
2017-09-07T14:44:48.757Z,62.00
2017-09-07T14:47:17.192Z,63.10
2017-09-07T14:49:45.632Z,62.50
2017-09-07T14:52:14.072Z,62.30
2017-09-07T14:54:42.559Z,64.00
2017-09-07T14:57:10.798Z,63.30
2017-09-07T14:59:39.225Z,64.00
2017-09-07T15:02:08.450Z,65.20
2017-09-07T15:04:36.925Z,64.40
2017-09-07T15:07:05.511Z,64.70
2017-09-07T15:09:33.948Z,64.70
2017-09-07T15:12:02.374Z,62.50
2017-09-07T15:14:30.850Z,62.70
2017-09-07T15:16:59.310Z,62.90
2017-09-07T15:19:28.530Z,63.20
2017-09-07T15:21:57.075Z,63.10
2017-09-07T15:24:25.743Z,63.40
2017-09-07T15:26:54.169Z,63.40
2017-09-07T15:29:22.594Z,64.10
2017-09-07T15:31:51.250Z,63.80
2017-09-07T15:34:19.706Z,64.20
2017-09-07T15:36:48.132Z,64.60
2017-09-07T15:39:16.567Z,64.70
2017-09-07T15:41:45.009Z,64.50
2017-09-07T15:44:13.484Z,65.50
2017-09-07T15:46:41.918Z,65.80
2017-09-07T15:49:10.366Z,65.50
2017-09-07T15:51:38.778Z,65.50
2017-09-07T15:54:07.196Z,66.00
2017-09-07T15:56:35.686Z,65.00
2017-09-07T15:59:04.123Z,65.40
2017-09-07T16:01:32.556Z,64.70
2017-09-07T16:04:01.006Z,64.80
2017-09-07T16:06:29.710Z,66.30
2017-09-07T16:08:58.133Z,65.20
2017-09-07T16:11:26.597Z,65.30
2017-09-07T16:13:55.021Z,65.60
2017-09-07T16:16:23.485Z,66.20
2017-09-07T16:18:51.911Z,66.00
2017-09-07T16:21:20.518Z,67.00
2017-09-07T16:23:48.942Z,67.30
2017-09-07T16:26:17.372Z,67.00
2017-09-07T16:28:45.821Z,67.10
2017-09-07T16:31:14.245Z,67.80
2017-09-07T16:33:42.947Z,67.90
2017-09-07T16:39:15.014Z,68.50
2017-09-07T16:41:43.465Z,68.40
2017-09-07T16:44:11.917Z,68.20
2017-09-07T16:46:41.014Z,68.00
2017-09-07T16:49:09.431Z,68.40
2017-09-07T16:51:37.863Z,67.70
2017-09-07T16:54:06.304Z,67.40
2017-09-07T16:56:34.721Z,67.50
2017-09-07T16:59:03.179Z,67.00
2017-09-07T17:01:31.473Z,66.90
2017-09-07T17:03:59.707Z,67.10
2017-09-07T17:06:27.956Z,67.10
2017-09-07T17:08:56.390Z,66.80
2017-09-07T17:11:25.196Z,67.20
2017-09-07T17:13:54.003Z,67.20
2017-09-07T17:16:23.125Z,67.20
2017-09-07T17:18:51.580Z,67.50
2017-09-07T17:21:20.133Z,67.40
2017-09-07T17:23:49.210Z,67.80
2017-09-07T17:26:58.940Z,67.90
2017-09-07T17:29:27.312Z,67.90
2017-09-07T17:31:55.982Z,68.20
2017-09-07T17:34:24.314Z,68.40
2017-09-07T17:36:53.307Z,68.20
2017-09-07T17:39:23.482Z,69.30
2017-09-07T17:41:51.981Z,68.60
2017-09-07T17:44:20.434Z,68.70
2017-09-07T17:46:48.853Z,68.60
2017-09-07T17:49:18.088Z,69.50
2017-09-07T17:51:46.766Z,69.00
2017-09-07T17:54:15.563Z,69.10
2017-09-07T17:56:44.131Z,69.20
2017-09-07T17:59:12.562Z,69.40
2017-09-07T18:01:40.997Z,69.80
2017-09-07T18:04:09.412Z,70.30
2017-09-07T18:06:38.076Z,70.50
2017-09-07T18:09:07.014Z,70.50
2017-09-07T18:11:35.449Z,70.70
2017-09-07T18:14:03.956Z,70.70
2017-09-07T18:16:33.452Z,70.80
2017-09-07T18:19:01.895Z,70.80
2017-09-07T18:21:30.373Z,71.40
2017-09-07T18:23:58.802Z,71.20
2017-09-07T18:26:27.258Z,71.40
2017-09-07T18:28:55.510Z,71.70
2017-09-07T18:31:23.963Z,72.40
2017-09-07T18:33:53.163Z,73.90
2017-09-07T18:36:21.571Z,73.70
2017-09-07T18:38:50.020Z,74.10
2017-09-07T18:41:19.213Z,75.00
2017-09-07T18:43:48.416Z,75.40
2017-09-07T18:46:17.639Z,75.40
2017-09-07T18:48:46.060Z,75.40
2017-09-07T18:51:14.542Z,75.50
2017-09-07T18:53:42.986Z,76.40
2017-09-07T18:56:11.448Z,75.80
2017-09-07T18:58:40.139Z,75.70
2017-09-07T19:01:08.575Z,75.90
2017-09-07T19:03:37.056Z,76.00
2017-09-07T19:06:05.502Z,76.30
2017-09-07T19:08:33.946Z,76.50
2017-09-07T19:11:02.398Z,76.60
2017-09-07T19:13:31.142Z,76.90
2017-09-07T19:15:59.642Z,77.00
2017-09-07T19:18:28.087Z,76.90
2017-09-07T19:20:56.514Z,77.30
2017-09-07T19:23:26.566Z,77.10
2017-09-07T19:25:55.019Z,77.10
2017-09-07T19:28:23.482Z,77.10
2017-09-07T19:30:51.910Z,76.90
2017-09-07T19:33:22.960Z,77.50
2017-09-07T19:35:51.421Z,77.50
2017-09-07T19:38:19.866Z,77.70
2017-09-07T19:40:50.090Z,77.90
2017-09-07T19:43:18.385Z,77.90
2017-09-07T19:45:46.818Z,77.80
2017-09-07T19:48:15.274Z,77.90
2017-09-07T19:50:43.704Z,77.90
2017-09-07T19:53:12.135Z,77.90
2017-09-07T19:55:41.189Z,77.70
2017-09-07T19:58:11.127Z,77.70
2017-09-07T20:00:39.393Z,77.70
2017-09-07T20:03:07.882Z,77.80
2017-09-07T20:05:36.178Z,77.60
2017-09-07T20:08:04.511Z,77.80
2017-09-07T20:10:32.982Z,77.70
2017-09-07T20:13:01.762Z,77.50
2017-09-07T20:15:30.197Z,77.50
2017-09-07T20:17:58.672Z,77.50
2017-09-07T20:20:27.119Z,77.50
2017-09-07T20:22:55.545Z,78.40
2017-09-07T20:25:24.001Z,78.80
2017-09-07T20:27:52.456Z,77.80
2017-09-07T20:30:21.661Z,77.00
2017-09-07T20:32:50.158Z,77.00
2017-09-07T20:35:18.591Z,77.30
2017-09-07T20:37:47.069Z,77.30
2017-09-07T20:40:15.537Z,77.70
2017-09-07T20:42:43.982Z,77.80
2017-09-07T20:45:12.419Z,78.10
2017-09-07T20:47:40.914Z,78.00
2017-09-07T20:50:10.113Z,78.30
2017-09-07T20:52:38.817Z,78.30
2017-09-07T20:55:07.250Z,77.70
2017-09-07T20:57:35.680Z,77.60
2017-09-07T21:00:04.106Z,77.20
2017-09-07T21:02:32.582Z,77.30
2017-09-07T21:05:01.023Z,77.50
2017-09-07T21:07:29.457Z,77.70
2017-09-07T21:09:57.937Z,77.60
2017-09-07T21:12:26.352Z,77.40
2017-09-07T21:14:54.911Z,77.40
2017-09-07T21:17:23.397Z,77.50
2017-09-07T21:19:52.610Z,78.60
2017-09-07T21:22:20.876Z,77.70
2017-09-07T21:24:50.101Z,78.20
2017-09-07T21:27:18.566Z,78.00
2017-09-07T21:29:46.994Z,77.80
2017-09-07T21:32:15.758Z,78.10
2017-09-07T21:34:44.202Z,78.30
2017-09-07T21:37:13.439Z,78.40
2017-09-07T21:39:41.906Z,78.40
2017-09-07T21:42:10.330Z,78.50
2017-09-07T21:44:38.755Z,78.60
2017-09-07T21:47:07.225Z,78.70
2017-09-07T21:49:35.667Z,78.70
2017-09-07T21:52:04.085Z,78.50
2017-09-07T21:54:32.574Z,78.30
2017-09-07T21:57:01.008Z,78.30
2017-09-07T21:59:30.214Z,78.70
2017-09-07T22:01:59.485Z,79.00
2017-09-07T22:04:27.916Z,79.00
2017-09-07T22:06:56.345Z,78.80
2017-09-07T22:09:24.796Z,78.70
2017-09-07T22:11:53.490Z,78.50
2017-09-07T22:14:21.930Z,78.40
2017-09-07T22:16:50.384Z,78.30
2017-09-07T22:19:19.835Z,78.30
2017-09-07T22:21:48.253Z,78.30
2017-09-07T22:24:16.707Z,78.40
2017-09-07T22:26:45.125Z,78.60
2017-09-07T22:29:13.552Z,78.30
2017-09-07T22:31:42.014Z,78.30
2017-09-07T22:34:10.446Z,77.90
2017-09-07T22:36:38.874Z,77.60
2017-09-07T22:39:07.378Z,77.10
2017-09-07T22:41:35.857Z,77.80
2017-09-07T22:44:04.533Z,76.70
2017-09-07T22:46:32.991Z,76.70
2017-09-07T22:49:01.468Z,76.40
2017-09-07T22:51:30.658Z,76.30
2017-09-07T22:53:59.881Z,76.30
2017-09-07T22:56:28.315Z,76.20
2017-09-07T22:58:56.737Z,76.50
2017-09-07T23:01:25.177Z,76.20
2017-09-07T23:03:54.384Z,76.30
2017-09-07T23:06:23.616Z,76.00
2017-09-07T23:08:52.068Z,76.00
2017-09-07T23:11:20.502Z,76.00
2017-09-07T23:13:48.932Z,76.10
2017-09-07T23:16:17.437Z,76.40
2017-09-07T23:18:45.892Z,75.90
2017-09-07T23:21:15.076Z,76.30
2017-09-07T23:23:44.308Z,77.00
2017-09-07T23:26:12.730Z,76.20
2017-09-07T23:28:41.158Z,76.40
2017-09-07T23:31:09.659Z,76.00
2017-09-07T23:33:38.096Z,76.20
2017-09-07T23:36:07.269Z,76.30
2017-09-07T23:38:35.741Z,76.20
2017-09-07T23:41:04.199Z,76.50
2017-09-07T23:43:32.643Z,76.20
2017-09-07T23:46:01.076Z,76.30
2017-09-07T23:48:29.375Z,76.50
2017-09-07T23:50:58.579Z,76.50
2017-09-07T23:53:27.800Z,76.70
2017-09-07T23:55:56.222Z,76.60
2017-09-07T23:58:24.641Z,77.00
